Terminal Aerodrome Forecast
Issued by NWS Houston/Galveston TX

Home | Current Version | Previous Version | Text Only | Print | Product List | Glossary On
Versions: 1 2 3 4 5 6 7 8 9 10 11 12 13 14 15 16 17 18 19 20 21 22 23 24 25 26 27 28 29 30 31 32 33 34 35 36 37 38 39 40 41 42 43 44 45 46 47 48 49 50
000
FTUS44 KHGX 181128
TAFHOU
TAF
KHOU 181128Z 1812/1912 00000KT P6SM VCSH FEW015 SCT030 BKN120
      TEMPO 1813/1815 VRB15KT SHRA SCT008 BKN015
     FM181500 07005KT P6SM VCTS BKN025CB BKN250
      TEMPO 1816/1820 TSRA BKN020CB OVC040
     FM182000 VRB07KT P6SM VCSH BKN035 OVC100
      TEMPO 1820/1822 -SHRA
     FM182300 09007KT P6SM SCT030 BKN090 OVC250
     FM190900 VRB03KT P6SM VCSH SCT010 BKN250=

USA.gov is the U.S. government's official web portal to all federal, state and local government web resources and services.